Time;durP1;ratioP1;P1;durP2;ratioP2;P2;SDS_P1;SDS_P2;PMS_P1;PMS_P2;Temp;Humidity;BMP_temperature;BMP_pressure;BME280_temperature;BME280_humidity;BME280_pressure;Samples;Min_cycle;Max_cycle;Signal;HPM_P1;HPM_P2
2022/08/27 00:02:24;;;;;;;7.57;4.72;;;;;;;;;;5026380;28;20041;-77
2022/08/27 00:04:50;;;;;;;6.72;4.82;;;;;;;;;;5021058;28;20044;-77
2022/08/27 00:07:17;;;;;;;10.85;5.43;;;;;;;;;;5027774;28;20045;-77
2022/08/27 00:09:43;;;;;;;7.30;5.40;;;;;;;;;;5024449;28;20519;-77
2022/08/27 00:12:09;;;;;;;8.63;5.38;;;;;;;;;;5022461;28;20107;-77
2022/08/27 00:14:36;;;;;;;7.47;5.57;;;;;;;;;;5024895;28;20809;-77
2022/08/27 00:17:03;;;;;;;9.27;5.50;;;;;;;;;;5020737;28;20041;-76
2022/08/27 00:19:29;;;;;;;7.05;5.10;;;;;;;;;;5022247;28;20366;-77
2022/08/27 00:21:55;;;;;;;7.40;4.80;;;;;;;;;;5023485;28;20040;-76
2022/08/27 00:24:21;;;;;;;6.43;4.80;;;;;;;;;;5023692;28;20030;-77
2022/08/27 00:26:49;;;;;;;8.40;5.07;;;;;;;;;;5029180;28;20026;-77
2022/08/27 00:29:16;;;;;;;7.45;5.00;;;;;;;;;;5022015;28;21129;-77
2022/08/27 00:31:42;;;;;;;7.22;4.57;;;;;;;;;;5027341;28;20030;-76
2022/08/27 00:34:08;;;;;;;6.75;4.55;;;;;;;;;;5023621;28;20075;-77
2022/08/27 00:36:34;;;;;;;7.22;4.50;;;;;;;;;;5024992;28;20099;-77
2022/08/27 00:39:01;;;;;;;8.77;4.43;;;;;;;;;;5024549;28;20025;-76
2022/08/27 00:41:27;;;;;;;9.18;5.00;;;;;;;;;;5026773;28;20484;-76
2022/08/27 00:43:57;;;;;;;9.93;4.93;;;;;;;;;;5028179;28;20068;-77
2022/08/27 00:46:23;;;;;;;7.65;4.95;;;;;;;;;;5026804;28;20076;-77
2022/08/27 00:48:50;;;;;;;8.45;5.28;;;;;;;;;;5024130;28;20065;-76
2022/08/27 00:51:16;;;;;;;7.95;4.45;;;;;;;;;;5021594;28;20575;-76
2022/08/27 00:53:42;;;;;;;7.13;4.57;;;;;;;;;;5022536;28;20083;-77
2022/08/27 00:56:10;;;;;;;6.32;4.63;;;;;;;;;;5021358;28;20033;-77
2022/08/27 00:58:38;;;;;;;6.60;4.68;;;;;;;;;;5025757;28;20072;-77
2022/08/27 01:01:06;;;;;;;7.43;5.00;;;;;;;;;;5025243;28;20041;-77
2022/08/27 01:03:33;;;;;;;8.52;5.43;;;;;;;;;;5019179;28;20064;-77
2022/08/27 01:06:00;;;;;;;8.35;5.50;;;;;;;;;;5018464;28;20163;-77
2022/08/27 01:08:28;;;;;;;9.07;5.40;;;;;;;;;;5028478;28;20375;-76
2022/08/27 01:10:57;;;;;;;7.97;5.40;;;;;;;;;;5025884;28;20466;-76
2022/08/27 01:13:24;;;;;;;7.38;4.60;;;;;;;;;;5026827;28;20383;-77
2022/08/27 01:15:52;;;;;;;7.00;4.93;;;;;;;;;;5020347;28;20057;-77
2022/08/27 01:18:18;;;;;;;7.20;5.07;;;;;;;;;;5020109;28;20033;-76
2022/08/27 01:20:53;;;;;;;7.72;5.20;;;;;;;;;;5023327;28;20089;-76
2022/08/27 01:23:37;;;;;;;6.78;4.60;;;;;;;;;;5018661;28;20117;-77
2022/08/27 01:26:04;;;;;;;11.55;5.60;;;;;;;;;;5021891;28;20021;-76
2022/08/27 01:28:30;;;;;;;9.32;5.30;;;;;;;;;;5021114;28;20041;-76
2022/08/27 01:30:57;;;;;;;8.38;4.97;;;;;;;;;;5025604;28;20029;-76
2022/08/27 01:33:23;;;;;;;8.43;5.00;;;;;;;;;;5024139;28;20033;-77
2022/08/27 01:35:50;;;;;;;9.38;5.20;;;;;;;;;;5020736;28;20587;-76
2022/08/27 01:38:17;;;;;;;8.52;5.32;;;;;;;;;;5020573;28;20429;-76
2022/08/27 01:40:43;;;;;;;7.35;4.35;;;;;;;;;;5017726;28;20030;-76
2022/08/27 01:43:09;;;;;;;8.73;4.85;;;;;;;;;;5020778;28;20128;-76
2022/08/27 01:45:37;;;;;;;10.55;5.80;;;;;;;;;;5016538;28;20030;-76
2022/08/27 01:48:04;;;;;;;9.27;5.68;;;;;;;;;;5026197;28;20149;-76
2022/08/27 01:50:34;;;;;;;8.10;4.93;;;;;;;;;;5023837;28;20065;-76
2022/08/27 01:53:05;;;;;;;6.88;4.47;;;;;;;;;;5023171;28;20025;-76
2022/08/27 01:55:31;;;;;;;9.45;4.43;;;;;;;;;;5024292;28;20120;-77
2022/08/27 01:57:57;;;;;;;5.30;3.92;;;;;;;;;;5022560;28;20111;-76
2022/08/27 02:00:25;;;;;;;10.63;4.35;;;;;;;;;;5023590;28;20704;-76
2022/08/27 02:02:51;;;;;;;9.70;4.97;;;;;;;;;;5018843;28;20042;-76
2022/08/27 02:05:18;;;;;;;7.03;4.43;;;;;;;;;;5021131;28;20040;-77
2022/08/27 02:07:44;;;;;;;7.22;4.60;;;;;;;;;;5022099;28;20478;-76
2022/08/27 02:10:11;;;;;;;6.20;4.15;;;;;;;;;;5022403;28;20622;-76
2022/08/27 02:12:37;;;;;;;8.98;4.47;;;;;;;;;;5025053;28;20060;-76
2022/08/27 02:15:05;;;;;;;6.88;4.75;;;;;;;;;;5023403;28;20032;-76
2022/08/27 02:17:31;;;;;;;7.63;5.90;;;;;;;;;;5020913;28;20042;-77
2022/08/27 02:19:57;;;;;;;11.32;5.10;;;;;;;;;;5020657;28;20033;-76
2022/08/27 02:22:24;;;;;;;6.63;5.00;;;;;;;;;;5023636;28;20991;-76
2022/08/27 02:24:50;;;;;;;6.88;4.90;;;;;;;;;;5022177;28;20033;-77
2022/08/27 02:27:17;;;;;;;7.45;4.60;;;;;;;;;;5021440;28;20029;-77
2022/08/27 02:29:43;;;;;;;7.82;5.22;;;;;;;;;;5023246;28;20014;-77
2022/08/27 02:32:09;;;;;;;8.43;5.63;;;;;;;;;;5021429;28;20037;-76
2022/08/27 02:34:35;;;;;;;11.73;5.70;;;;;;;;;;5014598;28;20541;-77
2022/08/27 02:37:01;;;;;;;9.80;5.38;;;;;;;;;;5019938;28;20053;-76
2022/08/27 02:39:28;;;;;;;7.18;4.55;;;;;;;;;;5021714;28;20037;-76
2022/08/27 02:41:54;;;;;;;9.20;5.10;;;;;;;;;;5021259;28;20486;-76
2022/08/27 02:44:20;;;;;;;7.18;5.03;;;;;;;;;;5024020;28;20682;-76
2022/08/27 02:46:46;;;;;;;7.65;5.10;;;;;;;;;;5023501;28;20492;-76
2022/08/27 02:49:14;;;;;;;8.82;5.18;;;;;;;;;;5021451;28;20129;-76
2022/08/27 02:51:40;;;;;;;11.43;5.45;;;;;;;;;;5017452;28;20112;-75
2022/08/27 02:54:06;;;;;;;9.77;5.63;;;;;;;;;;5022364;28;20061;-76
2022/08/27 02:56:32;;;;;;;7.93;5.22;;;;;;;;;;5017482;28;20037;-76
2022/08/27 02:58:58;;;;;;;7.75;5.00;;;;;;;;;;5019490;28;20088;-76
2022/08/27 03:01:25;;;;;;;8.18;5.40;;;;;;;;;;5018568;28;20037;-76
2022/08/27 03:03:51;;;;;;;9.68;5.45;;;;;;;;;;5021636;28;20044;-76
2022/08/27 03:06:17;;;;;;;8.57;4.70;;;;;;;;;;5022617;28;20037;-75
2022/08/27 03:08:43;;;;;;;7.55;4.93;;;;;;;;;;5024340;28;20091;-76
2022/08/27 03:11:09;;;;;;;9.23;5.68;;;;;;;;;;5024335;28;20405;-76
2022/08/27 03:13:36;;;;;;;12.18;6.10;;;;;;;;;;5020821;28;20042;-76
2022/08/27 03:16:03;;;;;;;10.52;5.38;;;;;;;;;;5016692;28;20033;-76
2022/08/27 03:18:31;;;;;;;6.80;5.30;;;;;;;;;;5024652;28;20034;-76
2022/08/27 03:20:58;;;;;;;8.52;5.38;;;;;;;;;;5019428;28;20034;-76
2022/08/27 03:23:25;;;;;;;8.43;5.30;;;;;;;;;;5024513;28;20029;-76
2022/08/27 03:25:53;;;;;;;7.82;4.93;;;;;;;;;;5023279;28;20470;-76
2022/08/27 03:28:24;;;;;;;7.10;4.90;;;;;;;;;;5022789;28;20053;-76
2022/08/27 03:30:57;;;;;;;11.77;6.32;;;;;;;;;;5021113;28;20037;-76
2022/08/27 03:33:23;;;;;;;10.88;6.00;;;;;;;;;;5022552;28;20037;-76
2022/08/27 03:35:49;;;;;;;8.88;6.50;;;;;;;;;;5022393;28;20036;-75
2022/08/27 03:38:15;;;;;;;8.13;5.88;;;;;;;;;;5019638;28;20034;-76
2022/08/27 03:40:42;;;;;;;8.70;6.30;;;;;;;;;;5018914;28;20034;-76
2022/08/27 03:43:09;;;;;;;9.40;6.00;;;;;;;;;;5017286;28;20121;-76
2022/08/27 03:45:35;;;;;;;8.98;5.53;;;;;;;;;;5017902;28;20391;-76
2022/08/27 03:48:01;;;;;;;10.88;5.57;;;;;;;;;;5019817;28;20029;-76
2022/08/27 03:50:27;;;;;;;7.68;5.18;;;;;;;;;;5023249;28;20127;-76
2022/08/27 03:52:53;;;;;;;8.13;5.38;;;;;;;;;;5024289;28;20152;-76
2022/08/27 03:55:19;;;;;;;8.57;6.53;;;;;;;;;;5019655;28;20104;-76
2022/08/27 03:57:45;;;;;;;7.25;4.40;;;;;;;;;;5024219;28;20060;-76
2022/08/27 04:00:13;;;;;;;9.25;5.45;;;;;;;;;;5021992;28;20033;-76
2022/08/27 04:02:39;;;;;;;11.68;6.32;;;;;;;;;;5019746;28;20033;-76
2022/08/27 04:05:06;;;;;;;7.50;5.53;;;;;;;;;;5020667;28;20039;-75
2022/08/27 04:07:33;;;;;;;9.23;5.88;;;;;;;;;;5025849;28;20656;-76
2022/08/27 04:09:58;;;;;;;10.65;6.05;;;;;;;;;;5027742;28;20037;-76
2022/08/27 04:12:25;;;;;;;7.15;5.07;;;;;;;;;;5026935;28;20040;-76
2022/08/27 04:14:52;;;;;;;7.75;6.47;;;;;;;;;;5026626;28;20034;-76
2022/08/27 04:17:18;;;;;;;8.35;6.20;;;;;;;;;;5021903;28;20761;-76
2022/08/27 04:19:44;;;;;;;6.65;5.00;;;;;;;;;;5024403;28;20427;-76
2022/08/27 04:22:10;;;;;;;6.47;5.03;;;;;;;;;;5022495;28;20120;-75
2022/08/27 04:24:37;;;;;;;9.15;5.55;;;;;;;;;;5021499;28;20113;-75
2022/08/27 04:27:03;;;;;;;7.13;5.45;;;;;;;;;;5020868;28;20036;-76
2022/08/27 04:29:30;;;;;;;9.27;6.20;;;;;;;;;;5025570;28;20083;-76
2022/08/27 04:31:56;;;;;;;7.75;5.30;;;;;;;;;;5023308;28;20109;-76
2022/08/27 04:34:22;;;;;;;7.63;5.55;;;;;;;;;;5020945;28;20072;-76
2022/08/27 04:36:49;;;;;;;8.10;5.80;;;;;;;;;;5026246;28;20044;-76
2022/08/27 04:39:15;;;;;;;9.27;6.15;;;;;;;;;;5021818;28;20044;-76
2022/08/27 04:41:41;;;;;;;8.60;6.43;;;;;;;;;;5023797;28;20034;-76
2022/08/27 04:44:08;;;;;;;7.90;5.68;;;;;;;;;;5021920;28;20032;-76
2022/08/27 04:46:37;;;;;;;8.65;7.05;;;;;;;;;;5022411;28;20048;-76
2022/08/27 04:49:11;;;;;;;8.98;6.50;;;;;;;;;;5024323;28;20037;-76
2022/08/27 04:51:38;;;;;;;9.82;6.05;;;;;;;;;;5024737;28;20042;-76
2022/08/27 04:54:05;;;;;;;7.82;5.60;;;;;;;;;;5022013;28;20076;-76
2022/08/27 04:56:33;;;;;;;6.88;4.93;;;;;;;;;;5028180;28;20055;-76
2022/08/27 04:59:02;;;;;;;7.50;5.57;;;;;;;;;;5031013;28;20029;-76
2022/08/27 05:01:28;;;;;;;6.70;5.40;;;;;;;;;;5030907;28;20033;-76
2022/08/27 05:03:55;;;;;;;9.10;4.97;;;;;;;;;;5026695;28;20037;-76
2022/08/27 05:06:21;;;;;;;8.93;5.20;;;;;;;;;;5029595;28;20029;-76
2022/08/27 05:08:48;;;;;;;8.02;5.45;;;;;;;;;;5026241;28;20118;-76
2022/08/27 05:11:15;;;;;;;7.05;5.20;;;;;;;;;;5028408;28;20021;-76
2022/08/27 05:13:42;;;;;;;8.32;5.20;;;;;;;;;;5025585;28;20044;-76
2022/08/27 05:16:10;;;;;;;8.20;5.20;;;;;;;;;;5026740;28;20033;-76
2022/08/27 05:18:36;;;;;;;7.10;4.88;;;;;;;;;;5024440;28;20041;-76
2022/08/27 05:21:04;;;;;;;6.43;5.70;;;;;;;;;;5024493;28;20861;-76
2022/08/27 05:23:30;;;;;;;6.47;5.03;;;;;;;;;;5029324;28;20060;-76
2022/08/27 05:25:56;;;;;;;6.20;5.10;;;;;;;;;;5026126;28;20108;-76
2022/08/27 05:28:23;;;;;;;7.43;5.25;;;;;;;;;;5026957;28;20029;-76
2022/08/27 05:30:50;;;;;;;9.20;5.20;;;;;;;;;;5027236;28;20066;-76
2022/08/27 05:33:18;;;;;;;6.68;4.72;;;;;;;;;;5024396;28;20034;-76
2022/08/27 05:35:46;;;;;;;6.00;4.38;;;;;;;;;;5029681;28;20489;-76
2022/08/27 05:38:12;;;;;;;8.77;4.68;;;;;;;;;;5031452;28;20497;-76
2022/08/27 05:40:40;;;;;;;6.78;4.25;;;;;;;;;;5029947;28;20164;-76
2022/08/27 05:43:06;;;;;;;7.65;5.10;;;;;;;;;;5025168;28;20036;-76
2022/08/27 05:45:33;;;;;;;8.50;5.22;;;;;;;;;;5020692;28;20474;-76
2022/08/27 05:47:59;;;;;;;6.38;4.63;;;;;;;;;;5026713;28;20552;-77
2022/08/27 05:50:26;;;;;;;8.52;4.78;;;;;;;;;;5030290;28;20090;-77
2022/08/27 05:52:52;;;;;;;6.93;4.82;;;;;;;;;;5024298;28;20051;-77
2022/08/27 05:55:19;;;;;;;6.20;4.82;;;;;;;;;;5027911;28;20036;-76
2022/08/27 05:57:44;;;;;;;7.97;4.82;;;;;;;;;;5026198;28;20470;-77
2022/08/27 06:02:55;;;;;;;8.20;4.38;;;;;;;;;;5019761;28;20129;-77
2022/08/27 06:05:21;;;;;;;5.53;4.03;;;;;;;;;;5025023;28;20438;-77
2022/08/27 06:07:47;;;;;;;11.88;4.45;;;;;;;;;;5023993;28;20029;-77
2022/08/27 06:10:14;;;;;;;6.80;3.95;;;;;;;;;;5023348;28;20076;-77
2022/08/27 06:12:39;;;;;;;6.53;4.45;;;;;;;;;;5027621;28;20324;-77
2022/08/27 06:15:06;;;;;;;9.23;4.50;;;;;;;;;;5030249;28;20827;-77
2022/08/27 06:17:32;;;;;;;8.00;4.43;;;;;;;;;;5020644;28;20041;-76
2022/08/27 06:19:58;;;;;;;4.90;3.60;;;;;;;;;;5018588;28;20053;-76
2022/08/27 06:22:24;;;;;;;6.20;3.97;;;;;;;;;;5022859;28;20037;-76
2022/08/27 06:24:51;;;;;;;6.38;4.05;;;;;;;;;;5021812;28;20036;-76
2022/08/27 06:27:18;;;;;;;5.03;3.30;;;;;;;;;;5018493;28;20025;-76
2022/08/27 06:29:44;;;;;;;6.28;3.42;;;;;;;;;;5023063;28;20033;-76
2022/08/27 06:32:11;;;;;;;5.07;3.83;;;;;;;;;;5022135;28;20029;-76
2022/08/27 06:34:38;;;;;;;8.15;3.83;;;;;;;;;;5028357;28;20090;-76
2022/08/27 06:37:04;;;;;;;8.07;4.63;;;;;;;;;;5024934;28;20038;-76
2022/08/27 06:39:30;;;;;;;7.90;5.00;;;;;;;;;;5020336;28;20463;-76
2022/08/27 06:41:56;;;;;;;9.30;4.03;;;;;;;;;;5021855;28;20034;-76
2022/08/27 06:44:25;;;;;;;11.05;4.00;;;;;;;;;;5019960;28;20032;-76
2022/08/27 06:46:51;;;;;;;6.57;3.53;;;;;;;;;;5018806;28;20049;-76
2022/08/27 06:49:17;;;;;;;5.55;3.08;;;;;;;;;;5020079;28;20048;-76
2022/08/27 06:51:45;;;;;;;6.45;3.28;;;;;;;;;;5022140;28;20037;-76
2022/08/27 06:54:12;;;;;;;5.43;3.35;;;;;;;;;;5021135;28;20029;-76
2022/08/27 06:56:39;;;;;;;6.85;3.60;;;;;;;;;;5019862;28;20044;-76
2022/08/27 06:59:07;;;;;;;7.40;3.15;;;;;;;;;;5019715;28;20030;-77
2022/08/27 07:01:35;;;;;;;5.47;3.13;;;;;;;;;;5026980;28;20038;-76
2022/08/27 07:04:02;;;;;;;6.60;3.33;;;;;;;;;;5023228;28;20375;-77
2022/08/27 07:06:30;;;;;;;6.00;3.47;;;;;;;;;;5022679;28;20072;-77
2022/08/27 07:08:56;;;;;;;7.03;2.88;;;;;;;;;;5022093;28;20026;-77
2022/08/27 07:11:22;;;;;;;9.52;3.63;;;;;;;;;;5019906;28;20041;-76
2022/08/27 07:13:49;;;;;;;8.13;3.85;;;;;;;;;;5017440;28;20075;-77
2022/08/27 07:16:17;;;;;;;10.05;4.00;;;;;;;;;;5023871;28;20080;-77
2022/08/27 07:18:43;;;;;;;7.88;3.45;;;;;;;;;;5021391;28;20042;-77
2022/08/27 07:21:10;;;;;;;6.03;3.33;;;;;;;;;;5019505;28;20038;-77
2022/08/27 07:23:36;;;;;;;8.57;3.45;;;;;;;;;;5019554;28;20056;-77
2022/08/27 07:26:06;;;;;;;6.57;3.33;;;;;;;;;;5022452;28;20085;-77
2022/08/27 07:28:32;;;;;;;5.95;3.28;;;;;;;;;;5022322;28;20052;-77
2022/08/27 07:30:58;;;;;;;4.47;3.10;;;;;;;;;;5021337;28;20386;-77
2022/08/27 07:33:24;;;;;;;5.30;3.15;;;;;;;;;;5020765;28;20033;-76
2022/08/27 07:35:51;;;;;;;5.55;3.58;;;;;;;;;;5015809;28;20037;-77
2022/08/27 07:38:17;;;;;;;5.97;3.05;;;;;;;;;;5020182;28;20040;-76
2022/08/27 07:40:43;;;;;;;7.90;3.60;;;;;;;;;;5013867;28;20025;-76
2022/08/27 07:45:57;;;;;;;7.80;3.25;;;;;;;;;;5025199;28;20057;-76
2022/08/27 07:48:23;;;;;;;6.82;3.40;;;;;;;;;;5025597;28;20167;-76
2022/08/27 07:50:50;;;;;;;4.95;3.08;;;;;;;;;;5022576;28;20032;-76
2022/08/27 07:53:16;;;;;;;4.53;3.25;;;;;;;;;;5021061;28;20036;-76
2022/08/27 07:55:42;;;;;;;6.97;3.25;;;;;;;;;;5023263;28;20045;-77
2022/08/27 07:58:08;;;;;;;5.90;3.17;;;;;;;;;;5028522;28;20122;-77
2022/08/27 08:00:34;;;;;;;4.45;3.45;;;;;;;;;;5024461;28;20592;-77
2022/08/27 08:03:00;;;;;;;5.68;3.03;;;;;;;;;;5027776;28;20037;-77
2022/08/27 08:05:27;;;;;;;7.55;3.40;;;;;;;;;;5023141;28;20485;-77
2022/08/27 08:07:53;;;;;;;6.18;3.10;;;;;;;;;;5019643;28;20033;-77
2022/08/27 08:10:22;;;;;;;5.03;3.45;;;;;;;;;;5027036;28;20033;-77
2022/08/27 08:12:48;;;;;;;8.30;3.70;;;;;;;;;;5027614;28;20041;-77
2022/08/27 08:15:16;;;;;;;6.55;3.50;;;;;;;;;;5024771;28;20033;-77
2022/08/27 08:17:42;;;;;;;5.82;3.97;;;;;;;;;;5027124;28;20049;-77
2022/08/27 08:20:08;;;;;;;7.15;3.85;;;;;;;;;;5023959;28;20037;-77
2022/08/27 08:22:34;;;;;;;9.82;4.00;;;;;;;;;;5027444;28;20055;-77
2022/08/27 08:25:01;;;;;;;6.25;3.70;;;;;;;;;;5026747;28;20102;-77
2022/08/27 08:27:27;;;;;;;5.53;3.67;;;;;;;;;;5021799;28;20681;-76
2022/08/27 08:29:53;;;;;;;5.85;3.67;;;;;;;;;;5023125;28;20558;-77
2022/08/27 08:32:20;;;;;;;5.15;3.58;;;;;;;;;;5023176;28;20049;-77
2022/08/27 08:34:47;;;;;;;6.55;3.70;;;;;;;;;;5017233;28;20037;-76
2022/08/27 08:37:13;;;;;;;7.05;3.40;;;;;;;;;;5020381;28;20026;-76
2022/08/27 08:39:39;;;;;;;5.82;3.58;;;;;;;;;;5019698;28;20522;-77
2022/08/27 08:42:06;;;;;;;8.35;3.88;;;;;;;;;;5019370;28;20065;-77
2022/08/27 08:44:33;;;;;;;6.30;3.60;;;;;;;;;;5019896;28;20055;-77
2022/08/27 08:47:04;;;;;;;6.20;3.83;;;;;;;;;;5020373;28;20052;-77
2022/08/27 08:49:49;;;;;;;7.70;3.60;;;;;;;;;;5020187;28;20112;-77
2022/08/27 08:52:33;;;;;;;9.20;4.38;;;;;;;;;;5025066;28;20091;-77
2022/08/27 08:55:05;;;;;;;6.13;3.97;;;;;;;;;;5026048;28;20025;-77
2022/08/27 08:57:36;;;;;;;5.97;4.30;;;;;;;;;;5031747;28;20037;-78
2022/08/27 09:00:08;;;;;;;5.30;3.38;;;;;;;;;;5032232;28;20036;-77
2022/08/27 09:02:34;;;;;;;7.72;3.97;;;;;;;;;;5026477;28;20203;-76
2022/08/27 09:05:05;;;;;;;6.32;3.70;;;;;;;;;;5017960;28;20128;-77
2022/08/27 09:07:51;;;;;;;5.78;3.88;;;;;;;;;;5023339;28;20073;-77
2022/08/27 09:10:40;;;;;;;5.40;3.50;;;;;;;;;;5022814;28;20435;-77
2022/08/27 09:13:11;;;;;;;7.72;3.53;;;;;;;;;;5022535;28;20614;-76
2022/08/27 09:15:37;;;;;;;6.45;4.18;;;;;;;;;;5030106;28;20060;-77
2022/08/27 09:18:07;;;;;;;5.72;3.67;;;;;;;;;;5024951;28;20562;-77
2022/08/27 09:20:34;;;;;;;7.32;4.40;;;;;;;;;;5023826;28;20827;-77
2022/08/27 09:23:04;;;;;;;6.25;3.67;;;;;;;;;;5020277;28;20034;-78
2022/08/27 09:25:37;;;;;;;6.88;3.65;;;;;;;;;;5026116;28;20031;-78
2022/08/27 09:29:14;;;;;;;8.25;3.95;;;;;;;;;;5022583;28;20039;-78
2022/08/27 09:30:54;;;;;;;5.22;3.30;;;;;;;;;;5023227;28;20040;-78
2022/08/27 09:33:21;;;;;;;6.45;3.70;;;;;;;;;;5025441;28;20385;-78
2022/08/27 09:35:47;;;;;;;7.72;3.50;;;;;;;;;;5022838;28;20025;-78
2022/08/27 09:38:24;;;;;;;5.75;3.80;;;;;;;;;;5023961;28;20117;-77
2022/08/27 09:40:51;;;;;;;6.18;3.40;;;;;;;;;;5025390;28;20041;-77
2022/08/27 09:43:27;;;;;;;5.18;3.17;;;;;;;;;;5024150;28;20030;-77
2022/08/27 09:45:54;;;;;;;5.13;3.85;;;;;;;;;;5024608;28;20044;-78
2022/08/27 09:48:22;;;;;;;11.38;3.45;;;;;;;;;;5026014;28;20037;-78
2022/08/27 09:50:50;;;;;;;6.82;4.18;;;;;;;;;;5025415;28;20038;-77
2022/08/27 09:53:20;;;;;;;4.85;3.00;;;;;;;;;;5022493;28;20037;-77
2022/08/27 09:55:49;;;;;;;5.38;3.22;;;;;;;;;;5019577;28;20033;-77
2022/08/27 09:58:27;;;;;;;8.93;4.10;;;;;;;;;;5021992;28;20477;-78
2022/08/27 10:00:59;;;;;;;6.75;3.58;;;;;;;;;;5023570;28;20139;-77
2022/08/27 10:03:25;;;;;;;6.90;3.60;;;;;;;;;;5020883;28;20036;-77
2022/08/27 10:05:52;;;;;;;5.30;3.33;;;;;;;;;;5025540;28;20108;-77
2022/08/27 10:08:40;;;;;;;5.47;3.08;;;;;;;;;;5024322;28;20544;-77
2022/08/27 10:11:06;;;;;;;5.57;3.22;;;;;;;;;;5024306;28;20049;-77
2022/08/27 10:13:35;;;;;;;6.03;3.33;;;;;;;;;;5022174;28;20073;-77
2022/08/27 10:16:20;;;;;;;5.80;3.33;;;;;;;;;;5024706;28;20029;-77
2022/08/27 10:18:48;;;;;;;6.57;3.28;;;;;;;;;;5024378;28;20061;-77
2022/08/27 10:21:19;;;;;;;5.18;3.03;;;;;;;;;;5025735;28;20034;-77
2022/08/27 10:23:53;;;;;;;4.85;2.65;;;;;;;;;;5021812;28;20079;-77
2022/08/27 10:26:19;;;;;;;3.72;2.50;;;;;;;;;;5023898;28;20516;-78
2022/08/27 10:28:48;;;;;;;4.55;2.63;;;;;;;;;;5023598;28;20037;-77
2022/08/27 10:31:20;;;;;;;4.60;2.72;;;;;;;;;;5017340;28;20121;-78
2022/08/27 10:33:46;;;;;;;6.00;3.00;;;;;;;;;;5019869;28;20037;-77
2022/08/27 10:36:25;;;;;;;4.53;2.83;;;;;;;;;;5042710;28;20036;-77
2022/08/27 10:39:09;;;;;;;6.10;2.97;;;;;;;;;;5019071;28;20037;-77
2022/08/27 10:41:42;;;;;;;4.60;2.80;;;;;;;;;;5025870;28;20054;-77
2022/08/27 10:44:16;;;;;;;3.95;2.60;;;;;;;;;;5022903;28;20029;-77
2022/08/27 10:46:57;;;;;;;4.80;2.38;;;;;;;;;;5013202;28;20528;-77
2022/08/27 10:49:37;;;;;;;4.10;2.75;;;;;;;;;;5018589;28;20153;-76
2022/08/27 10:52:08;;;;;;;3.65;2.22;;;;;;;;;;5026837;28;20439;-78
2022/08/27 10:54:34;;;;;;;;;;;;;;;;;;5025170;28;20057;-77
2022/08/27 10:57:04;;;;;;;5.55;3.00;;;;;;;;;;5029321;28;20345;-77
2022/08/27 10:59:37;;;;;;;4.65;2.58;;;;;;;;;;5026184;28;20030;-78
2022/08/27 11:02:11;;;;;;;5.65;2.80;;;;;;;;;;5023594;28;20037;-77
2022/08/27 11:04:41;;;;;;;3.72;2.58;;;;;;;;;;5023395;28;20031;-77
2022/08/27 11:07:11;;;;;;;5.43;2.47;;;;;;;;;;5027379;28;20784;-77
2022/08/27 11:09:46;;;;;;;3.75;2.30;;;;;;;;;;5026261;28;20112;-78
2022/08/27 11:12:15;;;;;;;3.90;2.35;;;;;;;;;;5026740;28;20879;-78
2022/08/27 11:14:46;;;;;;;5.03;2.50;;;;;;;;;;5027724;28;20034;-78
2022/08/27 11:17:15;;;;;;;5.20;2.85;;;;;;;;;;5029342;28;20103;-78
2022/08/27 11:19:53;;;;;;;3.92;2.67;;;;;;;;;;5030277;28;20167;-78
2022/08/27 11:22:40;;;;;;;4.45;2.35;;;;;;;;;;5025791;28;20060;-77
2022/08/27 11:25:18;;;;;;;3.40;2.08;;;;;;;;;;5028818;28;20116;-77
2022/08/27 11:27:45;;;;;;;3.83;2.20;;;;;;;;;;5033595;28;20616;-78
2022/08/27 11:30:16;;;;;;;3.33;1.67;;;;;;;;;;5037231;28;20107;-78
2022/08/27 11:32:42;;;;;;;4.80;2.00;;;;;;;;;;5037473;28;20044;-78
2022/08/27 11:35:25;;;;;;;4.13;2.78;;;;;;;;;;5033078;28;20034;-78
2022/08/27 11:38:01;;;;;;;3.00;2.00;;;;;;;;;;5033954;28;20038;-78
2022/08/27 11:40:37;;;;;;;4.72;2.42;;;;;;;;;;5029272;28;20025;-78
2022/08/27 11:43:12;;;;;;;3.20;1.65;;;;;;;;;;5026088;28;20030;-77
2022/08/27 11:45:51;;;;;;;4.30;1.80;;;;;;;;;;5026032;28;20033;-78
2022/08/27 11:48:25;;;;;;;2.55;1.92;;;;;;;;;;5028404;28;20052;-78
2022/08/27 11:50:53;;;;;;;5.57;2.20;;;;;;;;;;5028723;28;20527;-78
2022/08/27 11:53:24;;;;;;;3.30;2.03;;;;;;;;;;5027330;28;20033;-77
2022/08/27 11:55:51;;;;;;;4.40;2.07;;;;;;;;;;5029691;28;20040;-77
2022/08/27 11:58:17;;;;;;;4.85;1.55;;;;;;;;;;5029069;28;20026;-77
2022/08/27 12:00:44;;;;;;;7.78;1.92;;;;;;;;;;5029701;28;20034;-78
2022/08/27 12:03:10;;;;;;;5.90;2.00;;;;;;;;;;5021860;28;20509;-77
2022/08/27 12:05:39;;;;;;;4.85;1.80;;;;;;;;;;5027167;28;20030;-78
2022/08/27 12:08:12;;;;;;;2.38;1.50;;;;;;;;;;5026008;28;20068;-78
2022/08/27 12:10:45;;;;;;;4.82;1.67;;;;;;;;;;5029654;28;20545;-78
2022/08/27 12:13:30;;;;;;;3.08;1.70;;;;;;;;;;5023209;28;20036;-77
2022/08/27 12:16:02;;;;;;;3.40;1.75;;;;;;;;;;5028434;28;20033;-78
2022/08/27 12:18:48;;;;;;;4.75;2.03;;;;;;;;;;5025437;28;20112;-78
2022/08/27 12:21:21;;;;;;;5.10;1.70;;;;;;;;;;5026138;28;20029;-78
2022/08/27 12:23:48;;;;;;;3.83;1.80;;;;;;;;;;5025418;28;20040;-77
2022/08/27 12:26:29;;;;;;;3.25;1.60;;;;;;;;;;5030970;28;20029;-77
2022/08/27 12:29:15;;;;;;;3.20;1.83;;;;;;;;;;5025243;28;20029;-77
2022/08/27 12:31:43;;;;;;;3.22;1.98;;;;;;;;;;5026826;28;20041;-77
2022/08/27 12:34:20;;;;;;;3.42;1.40;;;;;;;;;;5028356;28;20076;-77
2022/08/27 12:36:51;;;;;;;2.95;1.60;;;;;;;;;;5025529;28;20048;-77
2022/08/27 12:39:18;;;;;;;3.50;1.83;;;;;;;;;;5027797;28;20026;-77
2022/08/27 12:41:46;;;;;;;2.75;1.90;;;;;;;;;;5027458;28;20041;-78
2022/08/27 12:44:15;;;;;;;2.40;1.42;;;;;;;;;;5026310;28;20029;-77
2022/08/27 12:46:46;;;;;;;3.88;1.48;;;;;;;;;;5028032;28;20124;-76
2022/08/27 12:49:15;;;;;;;2.90;1.70;;;;;;;;;;5024702;28;20021;-77
2022/08/27 12:51:41;;;;;;;2.72;1.40;;;;;;;;;;5025741;28;20048;-77
2022/08/27 12:54:24;;;;;;;3.17;1.30;;;;;;;;;;5022011;28;20033;-77
2022/08/27 12:56:53;;;;;;;4.15;1.50;;;;;;;;;;5022428;28;20041;-77
2022/08/27 12:59:19;;;;;;;3.97;1.90;;;;;;;;;;5024177;28;20101;-77
2022/08/27 13:01:56;;;;;;;4.95;1.63;;;;;;;;;;5021620;28;20045;-77
2022/08/27 13:04:27;;;;;;;4.20;1.55;;;;;;;;;;5022576;28;20026;-77
2022/08/27 13:06:54;;;;;;;4.28;1.60;;;;;;;;;;5021683;28;20036;-77
2022/08/27 13:09:30;;;;;;;5.05;1.40;;;;;;;;;;5027399;28;20025;-77
2022/08/27 13:11:58;;;;;;;2.75;1.45;;;;;;;;;;5018611;28;20033;-77
2022/08/27 13:14:25;;;;;;;3.20;1.75;;;;;;;;;;5026436;28;20701;-77
2022/08/27 13:16:53;;;;;;;4.43;1.60;;;;;;;;;;5024180;28;20038;-77
2022/08/27 13:19:24;;;;;;;3.05;1.52;;;;;;;;;;5026114;28;20033;-78
2022/08/27 13:21:50;;;;;;;2.72;1.33;;;;;;;;;;5029325;28;20120;-77
2022/08/27 13:24:21;;;;;;;4.28;1.45;;;;;;;;;;5022356;28;20029;-76
2022/08/27 13:26:49;;;;;;;3.63;1.40;;;;;;;;;;5026501;28;20136;-78
2022/08/27 13:29:15;;;;;;;5.32;1.80;;;;;;;;;;5022288;28;20021;-76
2022/08/27 13:31:41;;;;;;;5.20;1.52;;;;;;;;;;5022226;28;20489;-78
2022/08/27 13:34:07;;;;;;;39.15;4.13;;;;;;;;;;5023642;28;20480;-78
2022/08/27 13:36:36;;;;;;;4.82;1.38;;;;;;;;;;5030050;28;20044;-78
2022/08/27 13:39:04;;;;;;;18.88;1.80;;;;;;;;;;5026035;28;20033;-78
2022/08/27 13:41:32;;;;;;;6.45;1.20;;;;;;;;;;5030973;28;20060;-78
2022/08/27 13:44:05;;;;;;;3.40;1.25;;;;;;;;;;5022956;28;20038;-78
2022/08/27 13:46:32;;;;;;;1.70;1.08;;;;;;;;;;5028356;28;20053;-78
2022/08/27 13:48:59;;;;;;;2.95;1.38;;;;;;;;;;5015614;28;20481;-78
2022/08/27 13:51:27;;;;;;;7.05;1.77;;;;;;;;;;5025559;28;20446;-78
2022/08/27 13:54:12;;;;;;;2.15;1.20;;;;;;;;;;5026626;28;20592;-78
2022/08/27 13:56:39;;;;;;;2.85;1.33;;;;;;;;;;5021904;28;20045;-77
2022/08/27 13:59:10;;;;;;;2.28;1.25;;;;;;;;;;5017368;28;20063;-77
2022/08/27 14:01:36;;;;;;;2.67;1.40;;;;;;;;;;5024268;28;20045;-77
2022/08/27 14:04:02;;;;;;;1.95;1.38;;;;;;;;;;5024326;28;20048;-78
2022/08/27 14:06:34;;;;;;;3.00;1.20;;;;;;;;;;5022324;28;20033;-78
2022/08/27 14:09:24;;;;;;;2.05;1.02;;;;;;;;;;5025422;28;20026;-78
2022/08/27 14:11:57;;;;;;;2.40;1.17;;;;;;;;;;5019168;28;20072;-78
2022/08/27 14:14:23;;;;;;;2.55;1.27;;;;;;;;;;5026370;28;20129;-78
2022/08/27 14:16:56;;;;;;;2.85;1.30;;;;;;;;;;5027007;28;20073;-78
2022/08/27 14:19:26;;;;;;;5.55;1.20;;;;;;;;;;5019361;28;20841;-78
2022/08/27 14:21:52;;;;;;;2.73;1.30;;;;;;;;;;5025775;28;20068;-77
2022/08/27 14:24:18;;;;;;;2.92;1.20;;;;;;;;;;5018216;28;20041;-77
2022/08/27 14:26:48;;;;;;;2.58;1.20;;;;;;;;;;5025753;28;20040;-77
2022/08/27 14:29:14;;;;;;;4.55;1.65;;;;;;;;;;5024441;28;20041;-77
2022/08/27 14:31:40;;;;;;;2.17;1.27;;;;;;;;;;5027930;28;20482;-78
2022/08/27 14:34:07;;;;;;;5.10;2.25;;;;;;;;;;5028006;28;20025;-77
2022/08/27 14:36:36;;;;;;;4.80;1.10;;;;;;;;;;5022024;28;20061;-78
2022/08/27 14:39:03;;;;;;;2.33;1.00;;;;;;;;;;5023821;28;20118;-78
2022/08/27 14:41:29;;;;;;;2.63;1.10;;;;;;;;;;5022735;28;20355;-78
2022/08/27 14:43:55;;;;;;;11.88;2.90;;;;;;;;;;5028430;28;20037;-78
2022/08/27 14:46:25;;;;;;;5.22;1.20;;;;;;;;;;5024912;28;20064;-78
2022/08/27 14:48:53;;;;;;;4.35;3.10;;;;;;;;;;5022769;28;20036;-78
2022/08/27 14:51:23;;;;;;;6.30;2.05;;;;;;;;;;5026911;28;20061;-79
2022/08/27 14:53:50;;;;;;;2.65;1.08;;;;;;;;;;5026966;28;20080;-79
2022/08/27 14:56:16;;;;;;;3.78;1.00;;;;;;;;;;5022203;28;20021;-79
2022/08/27 14:58:43;;;;;;;1.30;0.80;;;;;;;;;;5029066;28;20041;-78